sensor_id;sensor_type;location;lat;lon;timestamp;P1;durP1;ratioP1;P2;durP2;ratioP2
43626;SDS011;29217;52.586;13.442;2024-03-02T00:01:06;67.07;;;24.58;;
43626;SDS011;29217;52.586;13.442;2024-03-02T00:03:32;61.55;;;24.55;;
43626;SDS011;29217;52.586;13.442;2024-03-02T00:05:58;59.35;;;23.33;;
43626;SDS011;29217;52.586;13.442;2024-03-02T00:08:24;60.90;;;23.95;;
43626;SDS011;29217;52.586;13.442;2024-03-02T00:10:51;66.30;;;25.13;;
43626;SDS011;29217;52.586;13.442;2024-03-02T00:13:18;56.25;;;23.20;;
43626;SDS011;29217;52.586;13.442;2024-03-02T00:15:52;49.45;;;21.38;;
43626;SDS011;29217;52.586;13.442;2024-03-02T00:18:21;57.67;;;23.77;;
43626;SDS011;29217;52.586;13.442;2024-03-02T00:20:56;59.95;;;22.17;;
43626;SDS011;29217;52.586;13.442;2024-03-02T00:23:23;57.53;;;24.48;;
43626;SDS011;29217;52.586;13.442;2024-03-02T00:25:50;60.55;;;23.77;;
43626;SDS011;29217;52.586;13.442;2024-03-02T00:28:21;59.42;;;23.63;;
43626;SDS011;29217;52.586;13.442;2024-03-02T00:33:23;59.83;;;23.40;;
43626;SDS011;29217;52.586;13.442;2024-03-02T00:35:51;62.22;;;24.55;;
43626;SDS011;29217;52.586;13.442;2024-03-02T00:38:17;57.08;;;22.73;;
43626;SDS011;29217;52.586;13.442;2024-03-02T00:40:43;52.78;;;23.75;;
43626;SDS011;29217;52.586;13.442;2024-03-02T00:46:04;51.10;;;22.08;;
43626;SDS011;29217;52.586;13.442;2024-03-02T00:48:30;54.38;;;22.77;;
43626;SDS011;29217;52.586;13.442;2024-03-02T00:51:02;62.60;;;24.38;;
43626;SDS011;29217;52.586;13.442;2024-03-02T00:53:31;52.35;;;23.25;;
43626;SDS011;29217;52.586;13.442;2024-03-02T00:55:58;56.88;;;22.83;;
43626;SDS011;29217;52.586;13.442;2024-03-02T00:58:24;57.40;;;23.25;;
43626;SDS011;29217;52.586;13.442;2024-03-02T01:00:50;55.30;;;23.45;;
43626;SDS011;29217;52.586;13.442;2024-03-02T01:03:16;54.78;;;23.52;;
43626;SDS011;29217;52.586;13.442;2024-03-02T01:05:41;54.38;;;22.67;;
43626;SDS011;29217;52.586;13.442;2024-03-02T01:08:08;61.47;;;23.60;;
43626;SDS011;29217;52.586;13.442;2024-03-02T01:10:34;54.42;;;25.70;;
43626;SDS011;29217;52.586;13.442;2024-03-02T01:12:59;54.70;;;22.48;;
43626;SDS011;29217;52.586;13.442;2024-03-02T01:15:25;57.35;;;23.55;;
43626;SDS011;29217;52.586;13.442;2024-03-02T01:17:50;65.47;;;24.65;;
43626;SDS011;29217;52.586;13.442;2024-03-02T01:20:16;59.72;;;25.02;;
43626;SDS011;29217;52.586;13.442;2024-03-02T01:22:42;59.67;;;24.00;;
43626;SDS011;29217;52.586;13.442;2024-03-02T01:25:08;57.08;;;23.25;;
43626;SDS011;29217;52.586;13.442;2024-03-02T01:27:34;54.58;;;22.25;;
43626;SDS011;29217;52.586;13.442;2024-03-02T01:29:59;57.97;;;24.08;;
43626;SDS011;29217;52.586;13.442;2024-03-02T01:32:25;53.80;;;23.27;;
43626;SDS011;29217;52.586;13.442;2024-03-02T01:34:51;56.15;;;24.40;;
43626;SDS011;29217;52.586;13.442;2024-03-02T01:37:16;49.75;;;22.75;;
43626;SDS011;29217;52.586;13.442;2024-03-02T01:39:42;62.15;;;23.98;;
43626;SDS011;29217;52.586;13.442;2024-03-02T01:42:08;70.70;;;24.38;;
43626;SDS011;29217;52.586;13.442;2024-03-02T01:44:33;50.05;;;22.38;;
43626;SDS011;29217;52.586;13.442;2024-03-02T01:46:59;55.97;;;23.50;;
43626;SDS011;29217;52.586;13.442;2024-03-02T01:49:24;57.38;;;23.70;;
43626;SDS011;29217;52.586;13.442;2024-03-02T01:51:50;52.72;;;22.77;;
43626;SDS011;29217;52.586;13.442;2024-03-02T01:54:16;54.97;;;23.27;;
43626;SDS011;29217;52.586;13.442;2024-03-02T01:56:41;55.00;;;22.75;;
43626;SDS011;29217;52.586;13.442;2024-03-02T01:59:07;50.17;;;22.35;;
43626;SDS011;29217;52.586;13.442;2024-03-02T02:01:32;58.78;;;23.77;;
43626;SDS011;29217;52.586;13.442;2024-03-02T02:03:58;58.45;;;23.27;;
43626;SDS011;29217;52.586;13.442;2024-03-02T02:06:24;58.25;;;24.15;;
43626;SDS011;29217;52.586;13.442;2024-03-02T02:08:50;56.65;;;23.80;;
43626;SDS011;29217;52.586;13.442;2024-03-02T02:11:16;55.50;;;23.23;;
43626;SDS011;29217;52.586;13.442;2024-03-02T02:13:42;51.13;;;22.17;;
43626;SDS011;29217;52.586;13.442;2024-03-02T02:16:07;55.50;;;24.58;;
43626;SDS011;29217;52.586;13.442;2024-03-02T02:18:33;58.00;;;25.20;;
43626;SDS011;29217;52.586;13.442;2024-03-02T02:21:00;55.67;;;24.48;;
43626;SDS011;29217;52.586;13.442;2024-03-02T02:23:26;56.58;;;23.55;;
43626;SDS011;29217;52.586;13.442;2024-03-02T02:25:52;51.28;;;23.35;;
43626;SDS011;29217;52.586;13.442;2024-03-02T02:28:18;54.53;;;24.33;;
43626;SDS011;29217;52.586;13.442;2024-03-02T02:30:43;49.55;;;22.02;;
43626;SDS011;29217;52.586;13.442;2024-03-02T02:33:09;55.55;;;22.77;;
43626;SDS011;29217;52.586;13.442;2024-03-02T02:35:34;64.25;;;24.08;;
43626;SDS011;29217;52.586;13.442;2024-03-02T02:38:00;63.22;;;24.77;;
43626;SDS011;29217;52.586;13.442;2024-03-02T02:40:28;53.25;;;23.23;;
43626;SDS011;29217;52.586;13.442;2024-03-02T02:42:57;60.88;;;24.00;;
43626;SDS011;29217;52.586;13.442;2024-03-02T02:45:24;54.20;;;23.77;;
43626;SDS011;29217;52.586;13.442;2024-03-02T02:47:49;55.15;;;23.08;;
43626;SDS011;29217;52.586;13.442;2024-03-02T02:50:15;54.10;;;22.63;;
43626;SDS011;29217;52.586;13.442;2024-03-02T02:52:41;55.40;;;23.83;;
43626;SDS011;29217;52.586;13.442;2024-03-02T02:55:08;56.35;;;22.70;;
43626;SDS011;29217;52.586;13.442;2024-03-02T02:57:34;57.67;;;23.98;;
43626;SDS011;29217;52.586;13.442;2024-03-02T03:00:03;50.35;;;23.08;;
43626;SDS011;29217;52.586;13.442;2024-03-02T03:02:38;57.58;;;23.92;;
43626;SDS011;29217;52.586;13.442;2024-03-02T03:05:05;56.50;;;24.13;;
43626;SDS011;29217;52.586;13.442;2024-03-02T03:07:31;57.10;;;23.63;;
43626;SDS011;29217;52.586;13.442;2024-03-02T03:09:58;54.35;;;22.95;;
43626;SDS011;29217;52.586;13.442;2024-03-02T03:12:23;60.78;;;22.45;;
43626;SDS011;29217;52.586;13.442;2024-03-02T03:14:49;55.72;;;22.75;;
43626;SDS011;29217;52.586;13.442;2024-03-02T03:17:14;62.58;;;24.45;;
43626;SDS011;29217;52.586;13.442;2024-03-02T03:19:40;52.67;;;23.17;;
43626;SDS011;29217;52.586;13.442;2024-03-02T03:22:06;47.05;;;23.52;;
43626;SDS011;29217;52.586;13.442;2024-03-02T03:24:31;54.53;;;23.65;;
43626;SDS011;29217;52.586;13.442;2024-03-02T03:26:58;55.17;;;23.38;;
43626;SDS011;29217;52.586;13.442;2024-03-02T03:29:23;54.42;;;23.20;;
43626;SDS011;29217;52.586;13.442;2024-03-02T03:31:49;51.83;;;22.77;;
43626;SDS011;29217;52.586;13.442;2024-03-02T03:34:14;50.88;;;22.10;;
43626;SDS011;29217;52.586;13.442;2024-03-02T03:36:41;57.72;;;24.42;;
43626;SDS011;29217;52.586;13.442;2024-03-02T03:39:07;52.33;;;23.77;;
43626;SDS011;29217;52.586;13.442;2024-03-02T03:41:32;58.00;;;22.77;;
43626;SDS011;29217;52.586;13.442;2024-03-02T03:43:58;60.30;;;25.33;;
43626;SDS011;29217;52.586;13.442;2024-03-02T03:46:24;53.53;;;23.05;;
43626;SDS011;29217;52.586;13.442;2024-03-02T03:48:49;58.17;;;23.00;;
43626;SDS011;29217;52.586;13.442;2024-03-02T03:51:15;51.20;;;23.95;;
43626;SDS011;29217;52.586;13.442;2024-03-02T03:53:41;53.88;;;22.90;;
43626;SDS011;29217;52.586;13.442;2024-03-02T03:56:06;60.10;;;25.50;;
43626;SDS011;29217;52.586;13.442;2024-03-02T03:58:32;64.28;;;25.67;;
43626;SDS011;29217;52.586;13.442;2024-03-02T04:00:58;59.97;;;24.17;;
43626;SDS011;29217;52.586;13.442;2024-03-02T04:03:23;56.13;;;23.73;;
43626;SDS011;29217;52.586;13.442;2024-03-02T04:05:49;60.53;;;24.33;;
43626;SDS011;29217;52.586;13.442;2024-03-02T04:08:15;63.47;;;25.45;;
43626;SDS011;29217;52.586;13.442;2024-03-02T04:10:40;58.50;;;24.45;;
43626;SDS011;29217;52.586;13.442;2024-03-02T04:13:07;60.50;;;23.67;;
43626;SDS011;29217;52.586;13.442;2024-03-02T04:15:32;61.38;;;23.70;;
43626;SDS011;29217;52.586;13.442;2024-03-02T04:17:58;63.35;;;24.95;;
43626;SDS011;29217;52.586;13.442;2024-03-02T04:20:23;56.90;;;23.75;;
43626;SDS011;29217;52.586;13.442;2024-03-02T04:22:50;53.72;;;22.67;;
43626;SDS011;29217;52.586;13.442;2024-03-02T04:25:16;60.30;;;23.92;;
43626;SDS011;29217;52.586;13.442;2024-03-02T04:27:41;57.67;;;25.58;;
43626;SDS011;29217;52.586;13.442;2024-03-02T04:30:07;54.85;;;24.38;;
43626;SDS011;29217;52.586;13.442;2024-03-02T04:32:33;58.83;;;25.55;;
43626;SDS011;29217;52.586;13.442;2024-03-02T04:34:58;58.33;;;25.02;;
43626;SDS011;29217;52.586;13.442;2024-03-02T04:37:24;54.90;;;24.42;;
43626;SDS011;29217;52.586;13.442;2024-03-02T04:39:49;62.85;;;24.23;;
43626;SDS011;29217;52.586;13.442;2024-03-02T04:42:15;58.60;;;25.10;;
43626;SDS011;29217;52.586;13.442;2024-03-02T04:44:41;54.83;;;24.35;;
43626;SDS011;29217;52.586;13.442;2024-03-02T04:47:06;56.97;;;24.77;;
43626;SDS011;29217;52.586;13.442;2024-03-02T04:49:32;61.20;;;25.02;;
43626;SDS011;29217;52.586;13.442;2024-03-02T04:51:57;55.30;;;22.73;;
43626;SDS011;29217;52.586;13.442;2024-03-02T04:54:23;53.33;;;24.60;;
43626;SDS011;29217;52.586;13.442;2024-03-02T04:56:49;63.65;;;26.20;;
43626;SDS011;29217;52.586;13.442;2024-03-02T04:59:17;69.95;;;28.83;;
43626;SDS011;29217;52.586;13.442;2024-03-02T05:01:44;72.55;;;29.15;;
43626;SDS011;29217;52.586;13.442;2024-03-02T05:04:09;72.28;;;27.80;;
43626;SDS011;29217;52.586;13.442;2024-03-02T05:06:37;63.92;;;26.30;;
43626;SDS011;29217;52.586;13.442;2024-03-02T05:09:06;54.53;;;23.98;;
43626;SDS011;29217;52.586;13.442;2024-03-02T05:11:34;53.05;;;23.77;;
43626;SDS011;29217;52.586;13.442;2024-03-02T05:14:04;58.78;;;24.23;;
43626;SDS011;29217;52.586;13.442;2024-03-02T05:16:32;54.08;;;23.48;;
43626;SDS011;29217;52.586;13.442;2024-03-02T05:18:59;57.83;;;24.15;;
43626;SDS011;29217;52.586;13.442;2024-03-02T05:21:24;55.90;;;23.38;;
43626;SDS011;29217;52.586;13.442;2024-03-02T05:23:50;53.40;;;23.60;;
43626;SDS011;29217;52.586;13.442;2024-03-02T05:26:16;67.57;;;23.75;;
43626;SDS011;29217;52.586;13.442;2024-03-02T05:28:41;57.53;;;24.40;;
43626;SDS011;29217;52.586;13.442;2024-03-02T05:31:10;61.13;;;24.02;;
43626;SDS011;29217;52.586;13.442;2024-03-02T05:33:39;63.17;;;25.02;;
43626;SDS011;29217;52.586;13.442;2024-03-02T05:36:04;58.75;;;25.48;;
43626;SDS011;29217;52.586;13.442;2024-03-02T05:38:31;60.50;;;24.30;;
43626;SDS011;29217;52.586;13.442;2024-03-02T05:40:56;70.28;;;26.70;;
43626;SDS011;29217;52.586;13.442;2024-03-02T05:43:22;68.75;;;26.00;;
43626;SDS011;29217;52.586;13.442;2024-03-02T05:45:47;64.18;;;25.88;;
43626;SDS011;29217;52.586;13.442;2024-03-02T05:48:13;64.55;;;26.58;;
43626;SDS011;29217;52.586;13.442;2024-03-02T05:50:38;55.75;;;23.35;;
43626;SDS011;29217;52.586;13.442;2024-03-02T05:53:04;65.43;;;25.73;;
43626;SDS011;29217;52.586;13.442;2024-03-02T05:55:29;67.03;;;27.30;;
43626;SDS011;29217;52.586;13.442;2024-03-02T05:57:56;72.13;;;28.00;;
43626;SDS011;29217;52.586;13.442;2024-03-02T06:00:30;73.68;;;27.33;;
43626;SDS011;29217;52.586;13.442;2024-03-02T06:02:56;74.32;;;26.48;;
43626;SDS011;29217;52.586;13.442;2024-03-02T06:05:22;73.32;;;28.40;;
43626;SDS011;29217;52.586;13.442;2024-03-02T06:07:48;66.50;;;27.17;;
43626;SDS011;29217;52.586;13.442;2024-03-02T06:10:14;85.63;;;29.80;;
43626;SDS011;29217;52.586;13.442;2024-03-02T06:12:39;82.40;;;29.55;;
43626;SDS011;29217;52.586;13.442;2024-03-02T06:15:05;71.07;;;27.27;;
43626;SDS011;29217;52.586;13.442;2024-03-02T06:17:31;79.32;;;30.48;;
43626;SDS011;29217;52.586;13.442;2024-03-02T06:19:57;79.80;;;29.70;;
43626;SDS011;29217;52.586;13.442;2024-03-02T06:22:22;81.93;;;29.67;;
43626;SDS011;29217;52.586;13.442;2024-03-02T06:24:50;86.75;;;31.30;;
43626;SDS011;29217;52.586;13.442;2024-03-02T06:27:16;84.72;;;29.92;;
43626;SDS011;29217;52.586;13.442;2024-03-02T06:29:41;96.40;;;32.45;;
43626;SDS011;29217;52.586;13.442;2024-03-02T06:32:07;85.78;;;30.33;;
43626;SDS011;29217;52.586;13.442;2024-03-02T06:34:33;95.18;;;31.80;;
43626;SDS011;29217;52.586;13.442;2024-03-02T06:36:58;83.25;;;30.05;;
43626;SDS011;29217;52.586;13.442;2024-03-02T06:39:24;90.72;;;31.48;;
43626;SDS011;29217;52.586;13.442;2024-03-02T06:41:50;88.63;;;31.65;;
43626;SDS011;29217;52.586;13.442;2024-03-02T06:44:16;86.80;;;30.95;;
43626;SDS011;29217;52.586;13.442;2024-03-02T06:46:42;97.93;;;31.92;;
43626;SDS011;29217;52.586;13.442;2024-03-02T06:49:08;88.13;;;30.63;;
43626;SDS011;29217;52.586;13.442;2024-03-02T06:51:35;92.68;;;31.10;;
43626;SDS011;29217;52.586;13.442;2024-03-02T06:54:01;79.57;;;30.23;;
43626;SDS011;29217;52.586;13.442;2024-03-02T06:56:26;86.60;;;30.73;;
43626;SDS011;29217;52.586;13.442;2024-03-02T06:58:52;86.20;;;30.95;;
43626;SDS011;29217;52.586;13.442;2024-03-02T07:01:17;77.82;;;29.42;;
43626;SDS011;29217;52.586;13.442;2024-03-02T07:03:43;80.30;;;31.42;;
43626;SDS011;29217;52.586;13.442;2024-03-02T07:06:09;89.63;;;31.08;;
43626;SDS011;29217;52.586;13.442;2024-03-02T07:08:34;83.00;;;30.92;;
43626;SDS011;29217;52.586;13.442;2024-03-02T07:11:00;78.75;;;29.58;;
43626;SDS011;29217;52.586;13.442;2024-03-02T07:13:26;86.78;;;29.90;;
43626;SDS011;29217;52.586;13.442;2024-03-02T07:15:51;85.88;;;30.08;;
43626;SDS011;29217;52.586;13.442;2024-03-02T07:18:30;83.78;;;30.95;;
43626;SDS011;29217;52.586;13.442;2024-03-02T07:20:56;86.10;;;31.20;;
43626;SDS011;29217;52.586;13.442;2024-03-02T07:23:24;82.45;;;28.92;;
43626;SDS011;29217;52.586;13.442;2024-03-02T07:25:52;83.93;;;30.45;;
43626;SDS011;29217;52.586;13.442;2024-03-02T07:28:21;78.53;;;30.40;;
43626;SDS011;29217;52.586;13.442;2024-03-02T07:30:59;74.00;;;30.35;;
43626;SDS011;29217;52.586;13.442;2024-03-02T07:33:26;78.32;;;29.75;;
43626;SDS011;29217;52.586;13.442;2024-03-02T07:35:51;85.05;;;30.05;;
43626;SDS011;29217;52.586;13.442;2024-03-02T07:38:18;71.82;;;28.50;;
43626;SDS011;29217;52.586;13.442;2024-03-02T07:40:44;79.55;;;29.88;;
43626;SDS011;29217;52.586;13.442;2024-03-02T07:43:10;79.15;;;29.35;;
43626;SDS011;29217;52.586;13.442;2024-03-02T07:45:36;79.53;;;30.95;;
43626;SDS011;29217;52.586;13.442;2024-03-02T07:48:03;84.25;;;30.83;;
43626;SDS011;29217;52.586;13.442;2024-03-02T07:50:29;79.15;;;30.02;;
43626;SDS011;29217;52.586;13.442;2024-03-02T07:53:00;92.45;;;29.80;;
43626;SDS011;29217;52.586;13.442;2024-03-02T07:55:25;81.53;;;31.13;;
43626;SDS011;29217;52.586;13.442;2024-03-02T07:57:51;89.35;;;30.58;;
43626;SDS011;29217;52.586;13.442;2024-03-02T08:00:17;78.43;;;29.15;;
43626;SDS011;29217;52.586;13.442;2024-03-02T08:02:42;86.55;;;30.48;;
43626;SDS011;29217;52.586;13.442;2024-03-02T08:05:08;76.25;;;29.23;;
43626;SDS011;29217;52.586;13.442;2024-03-02T08:07:34;87.20;;;28.88;;
43626;SDS011;29217;52.586;13.442;2024-03-02T08:10:00;91.45;;;30.70;;
43626;SDS011;29217;52.586;13.442;2024-03-02T08:12:25;93.43;;;31.25;;
43626;SDS011;29217;52.586;13.442;2024-03-02T08:14:51;93.63;;;32.30;;
43626;SDS011;29217;52.586;13.442;2024-03-02T08:17:16;82.30;;;30.15;;
43626;SDS011;29217;52.586;13.442;2024-03-02T08:19:42;81.70;;;30.75;;
43626;SDS011;29217;52.586;13.442;2024-03-02T08:22:09;76.22;;;29.38;;
43626;SDS011;29217;52.586;13.442;2024-03-02T08:24:35;82.90;;;29.77;;
43626;SDS011;29217;52.586;13.442;2024-03-02T08:27:01;75.47;;;31.98;;
43626;SDS011;29217;52.586;13.442;2024-03-02T08:29:27;90.00;;;34.45;;
43626;SDS011;29217;52.586;13.442;2024-03-02T08:31:52;93.57;;;33.35;;
43626;SDS011;29217;52.586;13.442;2024-03-02T08:34:19;81.80;;;31.45;;
43626;SDS011;29217;52.586;13.442;2024-03-02T08:36:45;76.90;;;30.20;;
43626;SDS011;29217;52.586;13.442;2024-03-02T08:39:11;79.68;;;30.17;;
43626;SDS011;29217;52.586;13.442;2024-03-02T08:41:44;81.25;;;31.75;;
43626;SDS011;29217;52.586;13.442;2024-03-02T08:44:10;91.85;;;30.55;;
43626;SDS011;29217;52.586;13.442;2024-03-02T08:46:37;82.68;;;29.98;;
43626;SDS011;29217;52.586;13.442;2024-03-02T08:49:03;90.57;;;32.25;;
43626;SDS011;29217;52.586;13.442;2024-03-02T08:51:29;78.78;;;29.92;;
43626;SDS011;29217;52.586;13.442;2024-03-02T08:53:56;76.97;;;29.17;;
43626;SDS011;29217;52.586;13.442;2024-03-02T08:56:22;76.57;;;30.35;;
43626;SDS011;29217;52.586;13.442;2024-03-02T08:58:51;76.57;;;29.77;;
43626;SDS011;29217;52.586;13.442;2024-03-02T09:01:17;70.45;;;28.38;;
43626;SDS011;29217;52.586;13.442;2024-03-02T09:03:44;83.07;;;28.15;;
43626;SDS011;29217;52.586;13.442;2024-03-02T09:06:11;78.65;;;29.98;;
43626;SDS011;29217;52.586;13.442;2024-03-02T09:08:37;73.88;;;26.35;;
43626;SDS011;29217;52.586;13.442;2024-03-02T09:11:03;65.68;;;25.95;;
43626;SDS011;29217;52.586;13.442;2024-03-02T09:13:30;60.40;;;25.42;;
43626;SDS011;29217;52.586;13.442;2024-03-02T09:15:56;63.50;;;26.52;;
43626;SDS011;29217;52.586;13.442;2024-03-02T09:18:22;67.03;;;26.65;;
43626;SDS011;29217;52.586;13.442;2024-03-02T09:20:47;65.60;;;25.10;;
43626;SDS011;29217;52.586;13.442;2024-03-02T09:23:13;66.07;;;24.98;;
43626;SDS011;29217;52.586;13.442;2024-03-02T09:25:39;66.93;;;25.70;;
43626;SDS011;29217;52.586;13.442;2024-03-02T09:28:04;67.97;;;28.55;;
43626;SDS011;29217;52.586;13.442;2024-03-02T09:30:30;64.05;;;27.45;;
43626;SDS011;29217;52.586;13.442;2024-03-02T09:32:56;66.75;;;26.25;;
43626;SDS011;29217;52.586;13.442;2024-03-02T09:35:21;67.85;;;26.27;;
43626;SDS011;29217;52.586;13.442;2024-03-02T09:37:47;68.03;;;27.88;;
43626;SDS011;29217;52.586;13.442;2024-03-02T09:40:13;65.63;;;26.00;;
43626;SDS011;29217;52.586;13.442;2024-03-02T09:42:39;69.28;;;26.23;;
43626;SDS011;29217;52.586;13.442;2024-03-02T09:45:06;66.03;;;26.77;;
43626;SDS011;29217;52.586;13.442;2024-03-02T09:47:32;61.80;;;24.63;;
43626;SDS011;29217;52.586;13.442;2024-03-02T09:49:58;62.05;;;25.60;;
43626;SDS011;29217;52.586;13.442;2024-03-02T09:52:24;74.07;;;27.35;;
43626;SDS011;29217;52.586;13.442;2024-03-02T09:54:50;65.78;;;27.45;;
43626;SDS011;29217;52.586;13.442;2024-03-02T09:57:16;70.78;;;26.38;;
43626;SDS011;29217;52.586;13.442;2024-03-02T09:59:42;65.60;;;26.05;;
43626;SDS011;29217;52.586;13.442;2024-03-02T10:02:07;67.18;;;24.85;;
43626;SDS011;29217;52.586;13.442;2024-03-02T10:04:33;56.20;;;23.45;;
43626;SDS011;29217;52.586;13.442;2024-03-02T10:07:12;70.28;;;25.15;;
43626;SDS011;29217;52.586;13.442;2024-03-02T10:09:39;53.22;;;23.02;;
43626;SDS011;29217;52.586;13.442;2024-03-02T10:12:06;60.47;;;22.33;;
43626;SDS011;29217;52.586;13.442;2024-03-02T10:14:32;57.70;;;21.77;;
43626;SDS011;29217;52.586;13.442;2024-03-02T10:17:02;47.35;;;21.55;;
43626;SDS011;29217;52.586;13.442;2024-03-02T10:19:28;46.03;;;20.42;;
43626;SDS011;29217;52.586;13.442;2024-03-02T10:21:58;45.28;;;18.95;;
43626;SDS011;29217;52.586;13.442;2024-03-02T10:24:24;46.95;;;20.65;;
43626;SDS011;29217;52.586;13.442;2024-03-02T10:26:51;48.53;;;20.75;;
43626;SDS011;29217;52.586;13.442;2024-03-02T10:29:17;46.78;;;20.13;;
43626;SDS011;29217;52.586;13.442;2024-03-02T10:31:44;44.25;;;19.65;;
43626;SDS011;29217;52.586;13.442;2024-03-02T10:34:11;47.80;;;19.42;;
43626;SDS011;29217;52.586;13.442;2024-03-02T10:36:41;37.17;;;17.05;;
43626;SDS011;29217;52.586;13.442;2024-03-02T10:39:07;47.60;;;18.15;;
43626;SDS011;29217;52.586;13.442;2024-03-02T10:41:34;43.65;;;18.45;;
43626;SDS011;29217;52.586;13.442;2024-03-02T10:44:04;39.50;;;17.00;;
43626;SDS011;29217;52.586;13.442;2024-03-02T10:46:31;37.20;;;16.35;;
43626;SDS011;29217;52.586;13.442;2024-03-02T10:48:58;32.78;;;15.32;;
43626;SDS011;29217;52.586;13.442;2024-03-02T10:51:25;32.83;;;14.70;;
43626;SDS011;29217;52.586;13.442;2024-03-02T10:53:51;30.08;;;14.60;;
43626;SDS011;29217;52.586;13.442;2024-03-02T10:56:21;41.58;;;16.58;;
43626;SDS011;29217;52.586;13.442;2024-03-02T10:58:49;33.17;;;14.80;;
43626;SDS011;29217;52.586;13.442;2024-03-02T11:01:16;30.90;;;13.90;;
43626;SDS011;29217;52.586;13.442;2024-03-02T11:03:42;29.02;;;13.52;;
43626;SDS011;29217;52.586;13.442;2024-03-02T11:06:09;34.85;;;14.98;;
43626;SDS011;29217;52.586;13.442;2024-03-02T11:08:36;31.60;;;13.63;;
43626;SDS011;29217;52.586;13.442;2024-03-02T11:11:08;32.28;;;14.20;;
43626;SDS011;29217;52.586;13.442;2024-03-02T11:13:37;29.75;;;13.98;;
43626;SDS011;29217;52.586;13.442;2024-03-02T11:16:09;32.85;;;13.82;;
43626;SDS011;29217;52.586;13.442;2024-03-02T11:18:37;26.23;;;12.07;;
43626;SDS011;29217;52.586;13.442;2024-03-02T11:21:04;27.08;;;11.25;;
43626;SDS011;29217;52.586;13.442;2024-03-02T11:23:34;23.40;;;11.27;;
43626;SDS011;29217;52.586;13.442;2024-03-02T11:28:45;25.92;;;10.38;;
43626;SDS011;29217;52.586;13.442;2024-03-02T11:31:11;25.83;;;10.98;;
43626;SDS011;29217;52.586;13.442;2024-03-02T11:33:37;22.17;;;10.25;;
43626;SDS011;29217;52.586;13.442;2024-03-02T11:36:03;23.63;;;11.18;;
43626;SDS011;29217;52.586;13.442;2024-03-02T11:38:32;21.30;;;10.10;;
43626;SDS011;29217;52.586;13.442;2024-03-02T11:41:02;27.67;;;11.70;;
43626;SDS011;29217;52.586;13.442;2024-03-02T11:43:29;23.17;;;10.90;;
43626;SDS011;29217;52.586;13.442;2024-03-02T11:45:58;20.88;;;10.35;;
43626;SDS011;29217;52.586;13.442;2024-03-02T11:48:25;27.45;;;11.75;;
43626;SDS011;29217;52.586;13.442;2024-03-02T11:50:51;31.90;;;12.35;;
43626;SDS011;29217;52.586;13.442;2024-03-02T11:53:17;25.98;;;11.05;;
43626;SDS011;29217;52.586;13.442;2024-03-02T11:55:43;26.45;;;10.73;;
43626;SDS011;29217;52.586;13.442;2024-03-02T11:58:14;27.40;;;11.40;;
43626;SDS011;29217;52.586;13.442;2024-03-02T12:00:42;23.33;;;11.80;;
43626;SDS011;29217;52.586;13.442;2024-03-02T12:03:09;26.15;;;10.77;;
43626;SDS011;29217;52.586;13.442;2024-03-02T12:05:35;25.02;;;10.88;;
43626;SDS011;29217;52.586;13.442;2024-03-02T12:08:02;23.48;;;10.77;;
43626;SDS011;29217;52.586;13.442;2024-03-02T12:10:29;25.77;;;11.95;;
43626;SDS011;29217;52.586;13.442;2024-03-02T12:13:04;24.52;;;11.38;;
43626;SDS011;29217;52.586;13.442;2024-03-02T12:15:32;23.60;;;10.13;;
43626;SDS011;29217;52.586;13.442;2024-03-02T12:17:59;28.48;;;11.02;;
43626;SDS011;29217;52.586;13.442;2024-03-02T12:20:27;25.30;;;11.07;;
43626;SDS011;29217;52.586;13.442;2024-03-02T12:22:54;23.88;;;11.63;;
43626;SDS011;29217;52.586;13.442;2024-03-02T12:25:20;20.77;;;10.35;;
43626;SDS011;29217;52.586;13.442;2024-03-02T12:27:47;25.58;;;11.73;;
43626;SDS011;29217;52.586;13.442;2024-03-02T12:30:16;22.80;;;10.93;;
43626;SDS011;29217;52.586;13.442;2024-03-02T12:32:42;22.33;;;10.60;;
43626;SDS011;29217;52.586;13.442;2024-03-02T12:35:08;19.02;;;9.05;;
43626;SDS011;29217;52.586;13.442;2024-03-02T12:37:46;21.70;;;8.93;;
43626;SDS011;29217;52.586;13.442;2024-03-02T12:40:13;19.05;;;9.25;;
43626;SDS011;29217;52.586;13.442;2024-03-02T12:42:39;17.77;;;8.77;;
43626;SDS011;29217;52.586;13.442;2024-03-02T12:45:06;17.55;;;9.02;;
43626;SDS011;29217;52.586;13.442;2024-03-02T12:47:33;22.27;;;10.13;;
43626;SDS011;29217;52.586;13.442;2024-03-02T12:49:59;19.48;;;10.10;;
43626;SDS011;29217;52.586;13.442;2024-03-02T12:52:25;22.30;;;10.13;;
43626;SDS011;29217;52.586;13.442;2024-03-02T12:54:51;23.17;;;10.50;;
43626;SDS011;29217;52.586;13.442;2024-03-02T12:57:20;23.40;;;10.15;;
43626;SDS011;29217;52.586;13.442;2024-03-02T12:59:46;19.25;;;8.80;;
43626;SDS011;29217;52.586;13.442;2024-03-02T13:02:19;21.65;;;9.07;;
43626;SDS011;29217;52.586;13.442;2024-03-02T13:04:51;18.20;;;9.45;;
43626;SDS011;29217;52.586;13.442;2024-03-02T13:07:19;18.65;;;8.10;;
43626;SDS011;29217;52.586;13.442;2024-03-02T13:09:45;16.15;;;7.63;;
43626;SDS011;29217;52.586;13.442;2024-03-02T13:12:11;19.63;;;8.18;;
43626;SDS011;29217;52.586;13.442;2024-03-02T13:14:37;16.70;;;7.65;;
43626;SDS011;29217;52.586;13.442;2024-03-02T13:17:03;19.75;;;8.20;;
43626;SDS011;29217;52.586;13.442;2024-03-02T13:19:30;16.55;;;7.72;;
43626;SDS011;29217;52.586;13.442;2024-03-02T13:21:57;21.60;;;8.70;;
43626;SDS011;29217;52.586;13.442;2024-03-02T13:24:23;17.05;;;9.18;;
43626;SDS011;29217;52.586;13.442;2024-03-02T13:26:53;19.75;;;9.20;;
43626;SDS011;29217;52.586;13.442;2024-03-02T13:29:22;17.20;;;8.45;;
43626;SDS011;29217;52.586;13.442;2024-03-02T13:31:47;18.98;;;8.32;;
43626;SDS011;29217;52.586;13.442;2024-03-02T13:34:13;16.83;;;8.35;;
43626;SDS011;29217;52.586;13.442;2024-03-02T13:36:39;19.17;;;8.75;;
43626;SDS011;29217;52.586;13.442;2024-03-02T13:39:05;15.48;;;7.55;;
43626;SDS011;29217;52.586;13.442;2024-03-02T13:41:34;15.65;;;8.05;;
43626;SDS011;29217;52.586;13.442;2024-03-02T13:44:00;20.30;;;8.40;;
43626;SDS011;29217;52.586;13.442;2024-03-02T13:46:26;17.02;;;7.22;;
43626;SDS011;29217;52.586;13.442;2024-03-02T13:48:52;17.23;;;8.52;;
43626;SDS011;29217;52.586;13.442;2024-03-02T13:51:19;13.45;;;6.38;;
43626;SDS011;29217;52.586;13.442;2024-03-02T13:53:45;14.68;;;7.70;;
43626;SDS011;29217;52.586;13.442;2024-03-02T13:56:11;16.00;;;7.45;;
43626;SDS011;29217;52.586;13.442;2024-03-02T13:58:37;17.70;;;8.63;;
43626;SDS011;29217;52.586;13.442;2024-03-02T14:01:02;15.93;;;8.23;;
43626;SDS011;29217;52.586;13.442;2024-03-02T14:03:30;19.15;;;8.55;;
43626;SDS011;29217;52.586;13.442;2024-03-02T14:05:56;15.82;;;7.72;;
43626;SDS011;29217;52.586;13.442;2024-03-02T14:08:21;16.90;;;8.88;;
43626;SDS011;29217;52.586;13.442;2024-03-02T14:10:48;13.73;;;7.18;;
43626;SDS011;29217;52.586;13.442;2024-03-02T14:13:13;14.95;;;6.50;;
43626;SDS011;29217;52.586;13.442;2024-03-02T14:15:40;14.10;;;6.55;;